Time;durP1;ratioP1;P1;durP2;ratioP2;P2;SDS_P1;SDS_P2;PMS_P1;PMS_P2;Temp;Humidity;BMP_temperature;BMP_pressure;BME280_temperature;BME280_humidity;BME280_pressure;Samples;Min_cycle;Max_cycle;Signal;HPM_P1;HPM_P2
2023/01/18 00:01:03;;;;;;;56.43;39.20;;;;;;;;;;5125788;28;20493;-72
2023/01/18 00:03:32;;;;;;;55.63;38.47;;;;;;;;;;5124666;28;20334;-72
2023/01/18 00:06:00;;;;;;;60.97;38.87;;;;;;;;;;5123014;28;20441;-73
2023/01/18 00:08:27;;;;;;;52.13;36.27;;;;;;;;;;5117677;28;20963;-72
2023/01/18 00:10:53;;;;;;;56.23;38.83;;;;;;;;;;5115889;28;20426;-72
2023/01/18 00:13:19;;;;;;;56.90;37.27;;;;;;;;;;5114111;28;20517;-72
2023/01/18 00:15:45;;;;;;;53.43;35.70;;;;;;;;;;5115156;28;20191;-71
2023/01/18 00:18:11;;;;;;;59.30;38.30;;;;;;;;;;5115047;28;20180;-72
2023/01/18 00:20:37;;;;;;;63.47;40.83;;;;;;;;;;5114891;28;20234;-71
2023/01/18 00:23:03;;;;;;;59.70;42.20;;;;;;;;;;5114266;28;20198;-71
2023/01/18 00:25:30;;;;;;;63.07;41.23;;;;;;;;;;5113728;28;20169;-71
2023/01/18 00:27:56;;;;;;;60.97;39.27;;;;;;;;;;5113590;28;20180;-70
2023/01/18 00:30:24;;;;;;;61.60;38.80;;;;;;;;;;5114190;28;20513;-72
2023/01/18 00:32:54;;;;;;;56.87;37.83;;;;;;;;;;5114281;28;20424;-70
2023/01/18 00:35:20;;;;;;;56.03;38.20;;;;;;;;;;5114998;28;20412;-73
2023/01/18 00:37:47;;;;;;;59.27;38.27;;;;;;;;;;5115050;28;20908;-73
2023/01/18 00:40:13;;;;;;;55.93;37.57;;;;;;;;;;5115386;28;20754;-72
2023/01/18 00:45:23;;;;;;;63.03;38.90;;;;;;;;;;5114657;28;20907;-72
2023/01/18 00:47:49;;;;;;;53.90;38.40;;;;;;;;;;5113896;28;20489;-72
2023/01/18 00:50:15;;;;;;;69.00;43.47;;;;;;;;;;5113540;28;20681;-71
2023/01/18 00:52:45;;;;;;;56.93;37.37;;;;;;;;;;5113603;28;20186;-72
2023/01/18 00:55:11;;;;;;;96.63;49.60;;;;;;;;;;5113637;28;20417;-72
2023/01/18 00:57:37;;;;;;;134.57;60.50;;;;;;;;;;5115093;28;20407;-72
2023/01/18 01:00:03;;;;;;;127.10;58.90;;;;;;;;;;5114029;28;20431;-72
2023/01/18 01:02:29;;;;;;;71.23;43.93;;;;;;;;;;5115986;28;20492;-72
2023/01/18 01:07:40;;;;;;;63.33;42.20;;;;;;;;;;5115368;28;20239;-72
2023/01/18 01:10:08;;;;;;;57.67;36.67;;;;;;;;;;5113551;28;20919;-72
2023/01/18 01:26:20;;;;;;;61.93;40.97;;;;;;;;;;5118449;28;20396;-71
2023/01/18 01:28:50;;;;;;;58.80;39.97;;;;;;;;;;5118294;28;20394;-73
2023/01/18 01:31:17;;;;;;;56.93;39.93;;;;;;;;;;5116908;28;20432;-73
2023/01/18 01:33:43;;;;;;;61.90;41.60;;;;;;;;;;5116852;28;20755;-72
2023/01/18 01:36:14;;;;;;;67.57;41.17;;;;;;;;;;5118105;28;20502;-72
2023/01/18 01:38:40;;;;;;;60.70;38.70;;;;;;;;;;5117294;28;20499;-70
2023/01/18 01:41:08;;;;;;;59.87;40.87;;;;;;;;;;5116974;28;21014;-72
2023/01/18 01:43:38;;;;;;;53.47;38.47;;;;;;;;;;5118427;28;20456;-72
2023/01/18 01:46:04;;;;;;;55.07;38.27;;;;;;;;;;5118442;28;20956;-72
2023/01/18 01:48:30;;;;;;;60.33;38.70;;;;;;;;;;5116746;28;20456;-71
2023/01/18 01:50:56;;;;;;;59.10;37.63;;;;;;;;;;5116312;28;20433;-73
2023/01/18 01:53:22;;;;;;;58.23;39.60;;;;;;;;;;5116397;28;20412;-72
2023/01/18 01:55:48;;;;;;;56.50;38.87;;;;;;;;;;5116351;28;20647;-71
2023/01/18 01:58:18;;;;;;;57.53;40.23;;;;;;;;;;5117474;28;20593;-71
2023/01/18 02:00:44;;;;;;;59.67;38.10;;;;;;;;;;5116276;28;20290;-72
2023/01/18 02:03:11;;;;;;;58.00;37.93;;;;;;;;;;5117228;28;20541;-69
2023/01/18 02:05:42;;;;;;;59.17;38.23;;;;;;;;;;5117349;28;20411;-72
2023/01/18 02:08:10;;;;;;;56.20;38.40;;;;;;;;;;5115933;28;20930;-71
2023/01/18 02:10:36;;;;;;;60.27;38.63;;;;;;;;;;5117245;28;20433;-72
2023/01/18 02:13:02;;;;;;;61.80;38.03;;;;;;;;;;5117121;28;20417;-72
2023/01/18 02:15:38;;;;;;;51.67;35.90;;;;;;;;;;5117462;28;20412;-71
2023/01/18 02:18:04;;;;;;;59.13;35.63;;;;;;;;;;5115871;28;20165;-72
2023/01/18 02:20:49;;;;;;;55.70;35.47;;;;;;;;;;5116881;28;20454;-72
2023/01/18 02:23:35;;;;;;;62.23;34.93;;;;;;;;;;5116122;28;20200;-72
2023/01/18 02:26:16;;;;;;;56.57;35.67;;;;;;;;;;5115939;28;20492;-72
2023/01/18 02:28:45;;;;;;;51.10;35.20;;;;;;;;;;5116710;28;20391;-73
2023/01/18 02:31:18;;;;;;;54.60;35.67;;;;;;;;;;5115799;28;20435;-72
2023/01/18 02:34:04;;;;;;;52.83;36.10;;;;;;;;;;5116322;28;20411;-72
2023/01/18 02:36:49;;;;;;;54.93;34.77;;;;;;;;;;5116976;28;20401;-71
2023/01/18 02:39:38;;;;;;;54.97;34.57;;;;;;;;;;5116223;28;20413;-72
2023/01/18 02:48:03;;;;;;;58.20;36.17;;;;;;;;;;5117204;28;20476;-74
2023/01/18 02:50:29;;;;;;;53.07;35.37;;;;;;;;;;5116545;28;20437;-72
2023/01/18 02:52:55;;;;;;;53.40;35.67;;;;;;;;;;5115411;28;20410;-71
2023/01/18 02:55:40;;;;;;;59.33;35.43;;;;;;;;;;5116313;28;20413;-72
2023/01/18 02:58:12;;;;;;;53.47;34.40;;;;;;;;;;5116586;28;20825;-71
2023/01/18 03:00:41;;;;;;;51.63;34.80;;;;;;;;;;5116062;28;20473;-72
2023/01/18 03:03:09;;;;;;;51.77;33.10;;;;;;;;;;5114804;28;20468;-72
2023/01/18 03:05:36;;;;;;;52.40;32.97;;;;;;;;;;5116079;28;20409;-71
2023/01/18 03:08:05;;;;;;;45.17;32.07;;;;;;;;;;5114818;28;20433;-72
2023/01/18 03:10:34;;;;;;;53.47;33.23;;;;;;;;;;5114844;28;20516;-72
2023/01/18 03:13:02;;;;;;;51.47;32.57;;;;;;;;;;5116146;28;20417;-71
2023/01/18 03:15:37;;;;;;;49.77;32.40;;;;;;;;;;5114728;28;20914;-70
2023/01/18 03:18:11;;;;;;;49.00;32.07;;;;;;;;;;5115720;28;20766;-71
2023/01/18 03:20:39;;;;;;;53.77;33.53;;;;;;;;;;5116658;28;20480;-72
2023/01/18 03:25:51;;;;;;;44.50;32.70;;;;;;;;;;5116637;28;20451;-71
2023/01/18 03:36:35;;;;;;;42.87;31.47;;;;;;;;;;5092538;28;20460;-70
2023/01/18 03:39:03;;;;;;;52.07;32.90;;;;;;;;;;5095668;28;20492;-70
2023/01/18 03:41:32;;;;;;;53.07;33.43;;;;;;;;;;5095713;28;20405;-70
2023/01/18 03:44:01;;;;;;;48.33;32.63;;;;;;;;;;5095728;28;20522;-69
2023/01/18 03:46:30;;;;;;;47.13;30.80;;;;;;;;;;5092773;28;20433;-70
2023/01/18 03:48:56;;;;;;;53.50;34.03;;;;;;;;;;5094170;28;20417;-71
2023/01/18 03:51:30;;;;;;;52.23;33.57;;;;;;;;;;5094915;28;20413;-70
2023/01/18 03:54:06;;;;;;;53.23;34.53;;;;;;;;;;5095646;28;20426;-70
2023/01/18 03:56:38;;;;;;;54.07;34.53;;;;;;;;;;5095177;28;20419;-70
2023/01/18 03:59:04;;;;;;;54.83;34.30;;;;;;;;;;5095991;28;20398;-71
2023/01/18 04:01:30;;;;;;;49.53;32.93;;;;;;;;;;5095365;28;20948;-70
2023/01/18 04:03:56;;;;;;;48.87;31.87;;;;;;;;;;5095198;28;20457;-71
2023/01/18 04:06:22;;;;;;;49.03;33.63;;;;;;;;;;5094689;28;20966;-70
2023/01/18 04:08:49;;;;;;;51.30;33.43;;;;;;;;;;5095652;28;20758;-70
2023/01/18 04:11:15;;;;;;;51.87;32.00;;;;;;;;;;5095096;28;20210;-70
2023/01/18 04:13:41;;;;;;;47.80;32.43;;;;;;;;;;5097171;28;20425;-70
2023/01/18 04:16:07;;;;;;;52.50;33.23;;;;;;;;;;5095426;28;20436;-70
2023/01/18 04:18:33;;;;;;;55.03;34.87;;;;;;;;;;5093565;28;20269;-70
2023/01/18 04:21:00;;;;;;;54.97;34.30;;;;;;;;;;5092988;28;20518;-70
2023/01/18 04:23:26;;;;;;;52.30;33.93;;;;;;;;;;5093978;28;20272;-70
2023/01/18 04:25:52;;;;;;;59.27;34.40;;;;;;;;;;5095293;28;20818;-70
2023/01/18 04:28:24;;;;;;;62.17;36.57;;;;;;;;;;5093943;28;20268;-70
2023/01/18 04:30:51;;;;;;;66.40;37.10;;;;;;;;;;5095420;28;20159;-70
2023/01/18 04:33:17;;;;;;;75.37;39.30;;;;;;;;;;5096033;28;20411;-70
2023/01/18 04:35:43;;;;;;;81.63;40.33;;;;;;;;;;5093949;28;20454;-71
2023/01/18 04:38:09;;;;;;;75.17;38.37;;;;;;;;;;5096604;28;20417;-70
2023/01/18 04:40:35;;;;;;;70.67;36.43;;;;;;;;;;5095126;28;20330;-71
2023/01/18 04:43:01;;;;;;;66.53;35.23;;;;;;;;;;5096052;28;20694;-70
2023/01/18 04:45:27;;;;;;;56.60;33.93;;;;;;;;;;5096209;28;20193;-70
2023/01/18 04:47:52;;;;;;;50.90;33.27;;;;;;;;;;5095274;28;20183;-72
2023/01/18 04:50:18;;;;;;;51.13;33.00;;;;;;;;;;5095831;28;20418;-69
2023/01/18 04:52:44;;;;;;;53.57;32.30;;;;;;;;;;5095600;28;20343;-70
2023/01/18 04:55:14;;;;;;;56.33;34.13;;;;;;;;;;5094726;28;20238;-70
2023/01/18 04:57:40;;;;;;;58.50;34.00;;;;;;;;;;5096825;28;20259;-70
2023/01/18 05:00:07;;;;;;;52.17;32.30;;;;;;;;;;5099185;28;20425;-70
2023/01/18 05:02:33;;;;;;;47.57;32.53;;;;;;;;;;5101689;28;20986;-70
2023/01/18 05:04:59;;;;;;;52.77;34.23;;;;;;;;;;5100741;28;20459;-70
2023/01/18 05:07:25;;;;;;;54.07;33.77;;;;;;;;;;5107145;28;20186;-70
2023/01/18 05:09:51;;;;;;;51.10;33.93;;;;;;;;;;5116186;28;20251;-70
2023/01/18 05:12:17;;;;;;;49.70;32.67;;;;;;;;;;5116658;28;20923;-71
2023/01/18 05:14:43;;;;;;;52.47;32.97;;;;;;;;;;5110548;28;20202;-71
2023/01/18 05:17:09;;;;;;;49.37;33.07;;;;;;;;;;5101648;28;20439;-71
2023/01/18 05:19:35;;;;;;;53.13;33.63;;;;;;;;;;5101210;28;20185;-71
2023/01/18 05:22:01;;;;;;;51.70;32.80;;;;;;;;;;5099049;28;20194;-70
2023/01/18 05:24:27;;;;;;;46.83;31.43;;;;;;;;;;5099289;28;20672;-70
2023/01/18 05:26:53;;;;;;;44.47;30.43;;;;;;;;;;5098722;28;20174;-70
2023/01/18 05:29:19;;;;;;;51.47;33.60;;;;;;;;;;5099052;28;20762;-71
2023/01/18 05:31:45;;;;;;;49.90;31.47;;;;;;;;;;5099454;28;20548;-70
2023/01/18 05:34:11;;;;;;;45.50;29.67;;;;;;;;;;5098699;28;20210;-71
2023/01/18 05:36:37;;;;;;;60.30;31.60;;;;;;;;;;5098333;28;20173;-70
2023/01/18 05:39:03;;;;;;;47.07;31.40;;;;;;;;;;5099737;28;20201;-70
2023/01/18 05:41:28;;;;;;;45.77;31.77;;;;;;;;;;5098835;28;20183;-70
2023/01/18 05:43:54;;;;;;;53.57;32.80;;;;;;;;;;5098483;28;20223;-70
2023/01/18 05:46:20;;;;;;;51.43;32.63;;;;;;;;;;5098997;28;20177;-70
2023/01/18 05:48:46;;;;;;;47.37;32.57;;;;;;;;;;5100662;28;20177;-70
2023/01/18 05:51:13;;;;;;;48.20;32.63;;;;;;;;;;5099273;28;20187;-71
2023/01/18 05:53:40;;;;;;;50.33;32.63;;;;;;;;;;5099392;28;20183;-70
2023/01/18 05:56:06;;;;;;;52.87;33.73;;;;;;;;;;5099791;28;20425;-70
2023/01/18 05:58:32;;;;;;;52.80;34.20;;;;;;;;;;5097496;28;20496;-70
2023/01/18 06:00:58;;;;;;;53.17;32.07;;;;;;;;;;5097073;28;20859;-70
2023/01/18 06:03:25;;;;;;;57.73;32.33;;;;;;;;;;5097318;28;20452;-70
2023/01/18 06:05:51;;;;;;;43.83;31.30;;;;;;;;;;5100229;28;20227;-69
2023/01/18 06:08:17;;;;;;;51.63;33.43;;;;;;;;;;5098615;28;20824;-70
2023/01/18 06:10:43;;;;;;;53.53;36.80;;;;;;;;;;5096839;28;20467;-70
2023/01/18 06:13:09;;;;;;;62.53;40.00;;;;;;;;;;5097450;28;20791;-70
2023/01/18 06:15:35;;;;;;;75.73;46.10;;;;;;;;;;5097080;28;20214;-70
2023/01/18 06:18:01;;;;;;;72.33;48.57;;;;;;;;;;5099233;28;20414;-71
2023/01/18 06:20:29;;;;;;;71.87;48.33;;;;;;;;;;5097216;28;20187;-70
2023/01/18 06:22:56;;;;;;;63.50;41.27;;;;;;;;;;5096495;28;20469;-70
2023/01/18 06:25:22;;;;;;;60.20;43.50;;;;;;;;;;5098451;28;21001;-70
2023/01/18 06:27:48;;;;;;;62.77;37.77;;;;;;;;;;5097210;28;20407;-71
2023/01/18 06:30:14;;;;;;;76.20;44.07;;;;;;;;;;5097882;28;20436;-70
2023/01/18 06:32:40;;;;;;;66.80;45.07;;;;;;;;;;5097661;28;20188;-71
2023/01/18 06:35:06;;;;;;;62.37;41.43;;;;;;;;;;5097330;28;20464;-70
2023/01/18 06:37:32;;;;;;;58.03;35.77;;;;;;;;;;5098575;28;20191;-70
2023/01/18 06:39:58;;;;;;;55.47;35.60;;;;;;;;;;5098025;28;20413;-69
2023/01/18 06:42:24;;;;;;;55.63;36.97;;;;;;;;;;5095875;28;20208;-70
2023/01/18 06:44:50;;;;;;;50.70;36.00;;;;;;;;;;5096179;28;20237;-70
2023/01/18 06:47:18;;;;;;;50.20;34.60;;;;;;;;;;5095915;28;20177;-70
2023/01/18 06:49:45;;;;;;;48.93;34.97;;;;;;;;;;5095679;28;20225;-70
2023/01/18 06:52:11;;;;;;;53.20;34.03;;;;;;;;;;5097120;28;20407;-70
2023/01/18 06:54:37;;;;;;;54.30;34.87;;;;;;;;;;5097338;28;20423;-70
2023/01/18 06:57:03;;;;;;;61.30;35.10;;;;;;;;;;5097207;28;20585;-70
2023/01/18 06:59:29;;;;;;;54.33;35.47;;;;;;;;;;5095088;28;20510;-70
2023/01/18 07:01:55;;;;;;;57.97;36.40;;;;;;;;;;5095560;28;20420;-70
2023/01/18 07:04:21;;;;;;;55.83;35.37;;;;;;;;;;5096631;28;20221;-70
2023/01/18 07:06:47;;;;;;;54.90;35.67;;;;;;;;;;5096994;28;20261;-70
2023/01/18 07:09:13;;;;;;;55.13;35.27;;;;;;;;;;5096974;28;20171;-71
2023/01/18 07:11:42;;;;;;;54.07;36.27;;;;;;;;;;5095228;28;20181;-70
2023/01/18 07:14:11;;;;;;;53.83;36.23;;;;;;;;;;5096576;28;20413;-70
2023/01/18 07:16:37;;;;;;;52.03;36.60;;;;;;;;;;5096922;28;20418;-70
2023/01/18 07:19:03;;;;;;;60.30;36.33;;;;;;;;;;5096594;28;20895;-71
2023/01/18 07:21:30;;;;;;;56.13;35.50;;;;;;;;;;5094760;28;20407;-70
2023/01/18 07:23:56;;;;;;;65.03;38.83;;;;;;;;;;5096413;28;20547;-70
2023/01/18 07:26:22;;;;;;;60.10;35.27;;;;;;;;;;5102972;28;20420;-70
2023/01/18 07:28:48;;;;;;;132.00;58.67;;;;;;;;;;5094432;28;20413;-70
2023/01/18 07:31:15;;;;;;;85.03;45.20;;;;;;;;;;5095079;28;20459;-70
2023/01/18 07:33:41;;;;;;;66.87;39.47;;;;;;;;;;5096069;28;20462;-70
2023/01/18 07:36:09;;;;;;;58.47;33.83;;;;;;;;;;5095627;28;20445;-70
2023/01/18 07:38:37;;;;;;;48.63;34.07;;;;;;;;;;5094820;28;20522;-70
2023/01/18 07:41:07;;;;;;;57.57;36.63;;;;;;;;;;5096565;28;20433;-70
2023/01/18 07:43:36;;;;;;;57.97;39.00;;;;;;;;;;5094912;28;20451;-70
2023/01/18 07:46:02;;;;;;;69.90;39.70;;;;;;;;;;5093479;28;20471;-70
2023/01/18 07:48:29;;;;;;;56.33;36.10;;;;;;;;;;5093410;28;20423;-70
2023/01/18 07:50:59;;;;;;;53.00;35.13;;;;;;;;;;5094838;28;20655;-70
2023/01/18 07:53:25;;;;;;;56.23;36.43;;;;;;;;;;5095183;28;20751;-69
2023/01/18 07:55:52;;;;;;;51.23;35.97;;;;;;;;;;5093016;28;20435;-69
2023/01/18 07:58:18;;;;;;;52.37;34.50;;;;;;;;;;5093049;28;20453;-69
2023/01/18 08:00:44;;;;;;;62.47;38.57;;;;;;;;;;5093159;28;20419;-69
2023/01/18 08:03:11;;;;;;;59.33;37.90;;;;;;;;;;5094700;28;20482;-69
2023/01/18 08:05:37;;;;;;;58.03;37.60;;;;;;;;;;5094305;28;20440;-69
2023/01/18 08:08:03;;;;;;;56.40;36.23;;;;;;;;;;5094356;28;20414;-69
2023/01/18 08:10:29;;;;;;;54.60;35.90;;;;;;;;;;5094462;28;20407;-69
2023/01/18 08:12:56;;;;;;;50.03;34.23;;;;;;;;;;5094575;28;20468;-70
2023/01/18 08:15:22;;;;;;;52.93;35.27;;;;;;;;;;5095523;28;20189;-69
2023/01/18 08:17:50;;;;;;;48.60;35.60;;;;;;;;;;5093116;28;20988;-69
2023/01/18 08:20:16;;;;;;;47.20;34.87;;;;;;;;;;5093029;28;20180;-69
2023/01/18 08:22:41;;;;;;;47.90;32.37;;;;;;;;;;5094960;28;20550;-69
2023/01/18 08:25:08;;;;;;;54.33;36.27;;;;;;;;;;5094605;28;20451;-69
2023/01/18 08:27:34;;;;;;;51.33;34.97;;;;;;;;;;5094247;28;20256;-67
2023/01/18 08:30:00;;;;;;;54.23;36.10;;;;;;;;;;5094036;28;20446;-69
2023/01/18 08:32:26;;;;;;;51.17;35.37;;;;;;;;;;5092318;28;20587;-69
2023/01/18 08:34:52;;;;;;;55.47;34.73;;;;;;;;;;5093957;28;20692;-70
2023/01/18 08:37:18;;;;;;;50.73;33.50;;;;;;;;;;5094280;28;20550;-69
2023/01/18 08:39:44;;;;;;;48.13;32.40;;;;;;;;;;5094245;28;20460;-69
2023/01/18 08:42:11;;;;;;;46.13;32.37;;;;;;;;;;5093814;28;20181;-70
2023/01/18 08:44:37;;;;;;;45.17;32.87;;;;;;;;;;5092382;28;20544;-70
2023/01/18 08:47:03;;;;;;;50.33;31.40;;;;;;;;;;5093642;28;20464;-69
2023/01/18 08:49:31;;;;;;;46.07;32.50;;;;;;;;;;5093284;28;20177;-69
2023/01/18 08:51:57;;;;;;;39.30;30.77;;;;;;;;;;5098598;28;20196;-70
2023/01/18 08:54:23;;;;;;;49.93;30.97;;;;;;;;;;5109290;28;20447;-70
2023/01/18 08:56:50;;;;;;;51.83;32.10;;;;;;;;;;5113739;28;20177;-71
2023/01/18 08:59:18;;;;;;;53.63;33.07;;;;;;;;;;5108854;28;20443;-69
2023/01/18 09:01:44;;;;;;;44.80;31.70;;;;;;;;;;5105715;28;20418;-69
2023/01/18 09:04:10;;;;;;;48.07;33.10;;;;;;;;;;5101869;28;20554;-70
2023/01/18 09:06:36;;;;;;;49.07;31.50;;;;;;;;;;5097639;28;20174;-70
2023/01/18 09:09:02;;;;;;;40.93;30.77;;;;;;;;;;5095909;28;20188;-70
2023/01/18 09:11:28;;;;;;;43.87;31.13;;;;;;;;;;5094814;28;20222;-70
2023/01/18 09:13:54;;;;;;;43.80;30.70;;;;;;;;;;5094236;28;20268;-70
2023/01/18 09:16:21;;;;;;;38.90;29.23;;;;;;;;;;5093913;28;20419;-72
2023/01/18 09:18:49;;;;;;;41.47;29.17;;;;;;;;;;5094241;28;20499;-70
2023/01/18 09:21:16;;;;;;;42.73;29.07;;;;;;;;;;5093066;28;20433;-70
2023/01/18 09:23:42;;;;;;;37.03;28.27;;;;;;;;;;5092374;28;20454;-71
2023/01/18 09:26:15;;;;;;;37.63;27.37;;;;;;;;;;5094165;28;20434;-71
2023/01/18 09:28:42;;;;;;;34.77;26.63;;;;;;;;;;5091926;28;20407;-71
2023/01/18 09:31:08;;;;;;;34.27;28.00;;;;;;;;;;5093152;28;20439;-71
2023/01/18 09:33:34;;;;;;;40.67;27.87;;;;;;;;;;5091933;28;20411;-68
2023/01/18 09:36:01;;;;;;;39.50;28.03;;;;;;;;;;5093706;28;20972;-71
2023/01/18 09:38:29;;;;;;;37.13;26.63;;;;;;;;;;5092493;28;20462;-68
2023/01/18 09:40:55;;;;;;;38.17;26.90;;;;;;;;;;5094233;28;20411;-71
2023/01/18 09:43:26;;;;;;;34.80;26.33;;;;;;;;;;5093737;28;20459;-71
2023/01/18 09:45:52;;;;;;;35.13;27.17;;;;;;;;;;5111372;23;20228;-72
2023/01/18 09:48:38;;;;;;;37.10;26.57;;;;;;;;;;5058919;28;20393;-73
2023/01/18 09:51:21;;;;;;;35.70;25.03;;;;;;;;;;5059041;28;20404;-72
2023/01/18 09:53:47;;;;;;;32.77;26.43;;;;;;;;;;5077077;28;20402;-71
2023/01/18 09:56:19;;;;;;;35.67;25.80;;;;;;;;;;5076576;28;20420;-71
2023/01/18 09:58:45;;;;;;;38.40;25.37;;;;;;;;;;5076942;28;20210;-69
2023/01/18 10:01:14;;;;;;;35.93;24.53;;;;;;;;;;5076747;28;20445;-73
2023/01/18 10:03:40;;;;;;;53.07;38.10;;;;;;;;;;5058473;28;20677;-72
2023/01/18 10:06:09;;;;;;;31.43;25.90;;;;;;;;;;5076160;28;20432;-72
2023/01/18 10:08:42;;;;;;;148.47;99.13;;;;;;;;;;5076362;28;20412;-72
2023/01/18 10:11:10;;;;;;;49.50;34.17;;;;;;;;;;5076391;28;20442;-71
2023/01/18 10:13:37;;;;;;;99.13;70.03;;;;;;;;;;5058361;28;20468;-69
2023/01/18 10:16:03;;;;;;;142.97;87.43;;;;;;;;;;5059096;28;20446;-71
2023/01/18 10:18:29;;;;;;;53.43;36.57;;;;;;;;;;5077366;28;20416;-71
2023/01/18 10:20:58;;;;;;;46.87;32.13;;;;;;;;;;5058290;28;20470;-71
2023/01/18 10:23:30;;;;;;;37.00;27.73;;;;;;;;;;5058280;28;20460;-72
2023/01/18 10:25:59;;;;;;;38.03;29.87;;;;;;;;;;5076004;28;20435;-69
2023/01/18 10:28:31;;;;;;;30.67;23.50;;;;;;;;;;5076413;28;20419;-70
2023/01/18 10:31:04;;;;;;;34.23;24.73;;;;;;;;;;5076197;28;20381;-72
2023/01/18 10:33:34;;;;;;;33.67;23.37;;;;;;;;;;5058767;28;20423;-71
2023/01/18 10:36:01;;;;;;;36.77;24.30;;;;;;;;;;5080835;28;20447;-71
2023/01/18 10:38:28;;;;;;;48.97;32.83;;;;;;;;;;5080825;28;20408;-71
2023/01/18 10:40:55;;;;;;;37.27;28.13;;;;;;;;;;5080116;28;20416;-72
2023/01/18 10:43:23;;;;;;;40.97;30.30;;;;;;;;;;5076472;28;20504;-72
2023/01/18 10:45:52;;;;;;;32.03;21.27;;;;;;;;;;5057891;28;20459;-72
2023/01/18 10:48:17;;;;;;;30.17;20.63;;;;;;;;;;5076712;28;20762;-73
2023/01/18 10:50:45;;;;;;;33.10;22.33;;;;;;;;;;5076111;28;20412;-72
2023/01/18 10:53:23;;;;;;;27.17;20.87;;;;;;;;;;5076061;28;20647;-72
2023/01/18 10:55:55;;;;;;;27.50;20.47;;;;;;;;;;5075098;28;20432;-72
2023/01/18 10:58:41;;;;;;;29.67;20.37;;;;;;;;;;5057650;28;20420;-73
2023/01/18 11:01:12;;;;;;;28.67;21.50;;;;;;;;;;5075385;28;20397;-73
2023/01/18 11:03:44;;;;;;;30.10;20.20;;;;;;;;;;5075330;28;20447;-72
2023/01/18 11:06:10;;;;;;;33.10;20.57;;;;;;;;;;5075288;28;20821;-73
2023/01/18 11:08:36;;;;;;;28.10;19.77;;;;;;;;;;5057405;28;20409;-73
2023/01/18 11:11:20;;;;;;;28.33;20.10;;;;;;;;;;5074938;28;20178;-73
2023/01/18 11:13:48;;;;;;;30.97;18.70;;;;;;;;;;5057115;28;20944;-72
2023/01/18 11:16:19;;;;;;;26.47;18.10;;;;;;;;;;5075004;28;21067;-72
2023/01/18 11:19:00;;;;;;;27.50;19.63;;;;;;;;;;5057102;28;20495;-72
2023/01/18 11:21:39;;;;;;;27.67;19.50;;;;;;;;;;5057021;28;20408;-72
2023/01/18 11:24:06;;;;;;;30.37;19.20;;;;;;;;;;5075314;28;20440;-72
2023/01/18 11:26:32;;;;;;;28.50;18.67;;;;;;;;;;5056898;28;20432;-72
2023/01/18 11:29:03;;;;;;;27.53;18.40;;;;;;;;;;5074673;28;20411;-71
2023/01/18 11:31:30;;;;;;;24.03;17.87;;;;;;;;;;5074754;28;20304;-74
2023/01/18 11:33:58;;;;;;;27.03;18.17;;;;;;;;;;5074694;28;20549;-71
2023/01/18 11:36:35;;;;;;;28.63;18.37;;;;;;;;;;5056653;28;20436;-73
2023/01/18 11:39:19;;;;;;;28.43;18.70;;;;;;;;;;5075544;28;20417;-72
2023/01/18 11:41:47;;;;;;;27.60;19.00;;;;;;;;;;5056954;28;20982;-72
2023/01/18 11:44:18;;;;;;;28.03;17.20;;;;;;;;;;5056801;28;20482;-72
2023/01/18 11:46:47;;;;;;;26.90;17.53;;;;;;;;;;5074769;28;20539;-71
2023/01/18 11:49:22;;;;;;;21.97;17.07;;;;;;;;;;5056733;28;20473;-71
2023/01/18 11:51:51;;;;;;;26.80;17.70;;;;;;;;;;5056389;28;20465;-72
2023/01/18 11:54:27;;;;;;;25.10;17.20;;;;;;;;;;5074228;28;20921;-73
2023/01/18 11:57:01;;;;;;;24.37;17.07;;;;;;;;;;5056891;28;20875;-72
2023/01/18 11:59:29;;;;;;;23.60;15.90;;;;;;;;;;5057023;28;20404;-71
2023/01/18 12:02:14;;;;;;;25.10;16.87;;;;;;;;;;5075080;28;20413;-71
2023/01/18 12:04:51;;;;;;;24.13;16.43;;;;;;;;;;5074467;28;20472;-72
2023/01/18 12:07:23;;;;;;;33.73;20.97;;;;;;;;;;5075299;28;20427;-72
2023/01/18 12:09:49;;;;;;;23.07;16.20;;;;;;;;;;5075823;28;20404;-72
2023/01/18 12:12:27;;;;;;;27.13;15.77;;;;;;;;;;5075400;28;20181;-69
2023/01/18 12:15:13;;;;;;;22.60;15.20;;;;;;;;;;5056679;28;20182;-73
2023/01/18 12:17:52;;;;;;;20.40;15.23;;;;;;;;;;5060491;28;20447;-72
2023/01/18 12:20:38;;;;;;;22.17;14.93;;;;;;;;;;5074817;28;20410;-72
2023/01/18 12:23:26;;;;;;;26.70;16.07;;;;;;;;;;5056335;28;20679;-72
2023/01/18 12:25:52;;;;;;;20.23;14.27;;;;;;;;;;5075136;28;20428;-71
2023/01/18 12:28:31;;;;;;;22.00;14.40;;;;;;;;;;5059224;28;20188;-73
2023/01/18 12:31:20;;;;;;;21.60;14.03;;;;;;;;;;5076673;28;20173;-72
2023/01/18 12:33:49;;;;;;;19.07;15.17;;;;;;;;;;5057371;28;20174;-72
2023/01/18 12:36:30;;;;;;;16.90;13.53;;;;;;;;;;5074583;28;20225;-72
2023/01/18 12:38:56;;;;;;;22.07;13.83;;;;;;;;;;5057337;28;20203;-73
2023/01/18 12:41:33;;;;;;;15.80;11.90;;;;;;;;;;5057920;28;20656;-73
2023/01/18 12:44:14;;;;;;;17.50;10.10;;;;;;;;;;5078840;28;20189;-71
2023/01/18 12:46:52;;;;;;;14.17;8.67;;;;;;;;;;5077915;28;20824;-71
2023/01/18 12:49:20;;;;;;;12.47;9.47;;;;;;;;;;5078086;28;20169;-71
2023/01/18 12:51:55;;;;;;;16.90;10.90;;;;;;;;;;5060037;28;20228;-72
2023/01/18 12:54:28;;;;;;;10.83;8.03;;;;;;;;;;5079669;28;20596;-72
2023/01/18 12:56:55;;;;;;;12.07;8.23;;;;;;;;;;5079087;28;20213;-71
2023/01/18 12:59:40;;;;;;;9.90;7.77;;;;;;;;;;5061330;28;20181;-72
2023/01/18 13:02:21;;;;;;;12.93;8.53;;;;;;;;;;5060993;28;20228;-72
2023/01/18 13:05:06;;;;;;;13.23;8.23;;;;;;;;;;5077863;28;20686;-72
2023/01/18 13:07:39;;;;;;;10.80;8.40;;;;;;;;;;5078550;28;20197;-70
2023/01/18 13:10:07;;;;;;;13.97;8.20;;;;;;;;;;5061753;28;20597;-73
2023/01/18 13:12:33;;;;;;;10.90;8.00;;;;;;;;;;5061274;28;20187;-72
2023/01/18 13:15:04;;;;;;;8.73;7.37;;;;;;;;;;5059000;28;20423;-72
2023/01/18 13:17:37;;;;;;;12.90;7.37;;;;;;;;;;5075034;28;20248;-71
2023/01/18 13:20:06;;;;;;;9.17;6.37;;;;;;;;;;5061019;28;20197;-72
2023/01/18 13:22:51;;;;;;;9.93;7.80;;;;;;;;;;5060674;28;20312;-72
2023/01/18 13:25:36;;;;;;;11.03;7.20;;;;;;;;;;5060482;28;20178;-71
2023/01/18 13:28:04;;;;;;;8.80;7.37;;;;;;;;;;5078371;28;20192;-71
2023/01/18 13:30:31;;;;;;;13.87;7.47;;;;;;;;;;5078312;28;20174;-71
2023/01/18 13:32:58;;;;;;;10.23;6.90;;;;;;;;;;5060259;28;20197;-71
2023/01/18 13:35:32;;;;;;;10.50;6.90;;;;;;;;;;5078364;28;20252;-72
2023/01/18 13:38:09;;;;;;;11.47;7.83;;;;;;;;;;5078312;28;20158;-71
2023/01/18 13:40:42;;;;;;;13.60;8.77;;;;;;;;;;5077910;28;20215;-71
2023/01/18 13:43:27;;;;;;;13.87;8.67;;;;;;;;;;5078223;28;20280;-73
2023/01/18 13:46:01;;;;;;;17.47;10.67;;;;;;;;;;5077668;28;20470;-71
2023/01/18 13:48:46;;;;;;;20.80;12.30;;;;;;;;;;5077917;28;20154;-71
2023/01/18 13:51:30;;;;;;;25.17;13.70;;;;;;;;;;5077236;28;20174;-73
2023/01/18 13:53:56;;;;;;;13.07;9.37;;;;;;;;;;5077701;28;20659;-71
2023/01/18 13:56:26;;;;;;;12.07;9.03;;;;;;;;;;5077862;28;20264;-73
2023/01/18 13:59:00;;;;;;;20.50;12.37;;;;;;;;;;5059546;28;20181;-73
2023/01/18 14:01:27;;;;;;;8.93;6.90;;;;;;;;;;5060414;28;20166;-72
2023/01/18 14:03:53;;;;;;;8.17;6.80;;;;;;;;;;5059775;28;20197;-71
2023/01/18 14:06:25;;;;;;;9.70;7.43;;;;;;;;;;5077859;28;20220;-71
2023/01/18 14:08:53;;;;;;;10.57;7.83;;;;;;;;;;5059453;28;20163;-73
2023/01/18 14:11:27;;;;;;;10.93;7.17;;;;;;;;;;5077429;28;20725;-73
2023/01/18 14:13:53;;;;;;;13.67;7.63;;;;;;;;;;5077634;28;20180;-73
2023/01/18 14:16:22;;;;;;;12.17;7.53;;;;;;;;;;5077344;28;20226;-74
2023/01/18 14:18:49;;;;;;;7.93;7.00;;;;;;;;;;5059228;28;20182;-72
2023/01/18 14:21:29;;;;;;;8.53;7.37;;;;;;;;;;5077315;28;20181;-71
2023/01/18 14:23:55;;;;;;;11.67;7.60;;;;;;;;;;5077479;28;20237;-73
2023/01/18 14:26:21;;;;;;;8.50;7.10;;;;;;;;;;5077294;28;20703;-72
2023/01/18 14:28:49;;;;;;;11.07;7.40;;;;;;;;;;5077252;28;20221;-71
2023/01/18 14:31:20;;;;;;;11.43;7.37;;;;;;;;;;5076407;28;20174;-72
2023/01/18 14:33:46;;;;;;;10.60;7.43;;;;;;;;;;5077025;28;20185;-72
2023/01/18 14:36:23;;;;;;;12.00;7.47;;;;;;;;;;5077625;28;20236;-72
2023/01/18 14:39:11;;;;;;;15.07;8.07;;;;;;;;;;5077302;28;20327;-73
2023/01/18 14:41:38;;;;;;;9.33;7.33;;;;;;;;;;5059971;28;20211;-71
2023/01/18 14:44:04;;;;;;;11.87;7.97;;;;;;;;;;5058853;28;20206;-71
2023/01/18 14:46:31;;;;;;;16.20;8.67;;;;;;;;;;5076982;28;20284;-73
2023/01/18 14:49:00;;;;;;;12.90;8.83;;;;;;;;;;5077093;28;20170;-72
2023/01/18 14:51:27;;;;;;;10.13;7.60;;;;;;;;;;5076619;28;20177;-71
2023/01/18 14:54:00;;;;;;;12.27;7.13;;;;;;;;;;5058443;28;20563;-72
2023/01/18 14:56:32;;;;;;;11.93;7.50;;;;;;;;;;5076205;28;20203;-72
2023/01/18 14:58:59;;;;;;;13.27;8.03;;;;;;;;;;5076366;28;20161;-73
2023/01/18 15:01:33;;;;;;;10.37;7.23;;;;;;;;;;5076287;28;20189;-72
2023/01/18 15:04:00;;;;;;;12.07;7.77;;;;;;;;;;5058254;28;20714;-72
2023/01/18 15:06:32;;;;;;;11.93;7.20;;;;;;;;;;5058307;28;20224;-73